createdAt,value
2023-06-17T00:02:50.275Z,6.65
2023-06-17T00:07:52.361Z,5.25
2023-06-17T00:12:52.993Z,5.85
2023-06-17T00:17:53.692Z,8.25
2023-06-17T00:22:55.748Z,6.57
2023-06-17T00:27:56.406Z,5.47
2023-06-17T00:32:57.144Z,10.13
2023-06-17T00:37:59.262Z,5.85
2023-06-17T00:43:00.244Z,6.45
2023-06-17T00:48:01.055Z,4.95
2023-06-17T00:53:03.173Z,8.20
2023-06-17T00:58:04.196Z,6.13
2023-06-17T01:03:06.615Z,5.00
2023-06-17T01:08:21.296Z,6.05
2023-06-17T01:13:24.745Z,10.45
2023-06-17T01:18:27.076Z,7.38
2023-06-17T01:23:33.487Z,7.40
2023-06-17T01:28:38.108Z,9.80
2023-06-17T01:33:40.840Z,17.83
2023-06-17T01:38:46.252Z,13.20
2023-06-17T01:43:51.047Z,11.57
2023-06-17T01:48:54.847Z,15.02
2023-06-17T01:53:55.495Z,11.75
2023-06-17T01:58:57.629Z,9.48
2023-06-17T02:03:59.317Z,12.98
2023-06-17T02:09:00.283Z,13.55
2023-06-17T02:14:02.338Z,10.77
2023-06-17T02:19:04.314Z,10.18
2023-06-17T02:24:05.134Z,9.18
2023-06-17T02:29:07.154Z,9.77
2023-06-17T02:34:07.817Z,12.18
2023-06-17T02:39:09.230Z,11.80
2023-06-17T02:44:11.598Z,9.95
2023-06-17T02:49:14.428Z,14.20
2023-06-17T02:54:15.117Z,12.75
2023-06-17T02:59:18.038Z,10.50
2023-06-17T03:04:21.427Z,11.70
2023-06-17T03:09:22.161Z,10.00
2023-06-17T03:14:25.848Z,13.30
2023-06-17T03:19:26.920Z,11.18
2023-06-17T03:24:27.893Z,11.23
2023-06-17T03:29:31.282Z,9.63
2023-06-17T03:34:35.176Z,10.48
2023-06-17T03:39:43.439Z,11.07
2023-06-17T03:44:47.236Z,12.65
2023-06-17T03:49:48.170Z,9.35
2023-06-17T03:54:49.668Z,13.45
2023-06-17T03:59:51.744Z,9.10
2023-06-17T04:04:53.868Z,10.00
2023-06-17T04:10:06.373Z,8.82
2023-06-17T04:15:10.656Z,8.30
2023-06-17T04:20:13.325Z,8.75
2023-06-17T04:25:16.589Z,10.20
2023-06-17T04:30:22.331Z,11.10
2023-06-17T04:35:24.332Z,9.90
2023-06-17T04:40:26.336Z,13.07
2023-06-17T04:45:28.334Z,11.88
2023-06-17T04:50:33.674Z,6.82
2023-06-17T04:55:36.489Z,9.35
2023-06-17T05:00:39.669Z,10.98
2023-06-17T05:05:41.238Z,11.18
2023-06-17T05:10:42.287Z,9.45
2023-06-17T05:15:44.247Z,10.77
2023-06-17T05:20:45.219Z,9.82
2023-06-17T05:25:47.029Z,9.48
2023-06-17T05:30:49.245Z,9.88
2023-06-17T05:35:52.348Z,9.85
2023-06-17T05:40:53.090Z,12.30
2023-06-17T05:45:55.354Z,18.13
2023-06-17T05:50:56.215Z,11.07
2023-06-17T05:55:57.831Z,11.70
2023-06-17T06:00:59.891Z,13.93
2023-06-17T06:06:03.106Z,10.43
2023-06-17T06:11:05.206Z,9.65
2023-06-17T06:16:08.693Z,10.65
2023-06-17T06:21:09.365Z,11.43
2023-06-17T06:26:10.021Z,10.50
2023-06-17T06:31:12.887Z,13.02
2023-06-17T06:36:13.554Z,11.63
2023-06-17T06:41:14.306Z,14.50
2023-06-17T06:46:25.250Z,13.80
2023-06-17T06:51:26.053Z,11.45
2023-06-17T06:56:27.985Z,15.13
2023-06-17T07:01:30.436Z,18.42
2023-06-17T07:06:33.307Z,13.23
2023-06-17T07:11:37.247Z,18.10
2023-06-17T07:16:39.666Z,13.45
2023-06-17T07:21:40.452Z,11.75
2023-06-17T07:26:41.246Z,14.20
2023-06-17T07:31:43.914Z,12.63
2023-06-17T07:36:44.631Z,15.65
2023-06-17T07:41:46.796Z,13.43
2023-06-17T07:46:48.886Z,21.17
2023-06-17T07:51:49.632Z,13.90
2023-06-17T07:56:50.267Z,15.40
2023-06-17T08:01:52.364Z,14.73
2023-06-17T08:06:53.490Z,17.60
2023-06-17T08:11:54.445Z,15.07
2023-06-17T08:16:57.104Z,19.23
2023-06-17T08:21:57.832Z,16.40
2023-06-17T08:26:58.598Z,15.40
2023-06-17T08:32:00.614Z,14.23
2023-06-17T08:37:05.689Z,12.50
2023-06-17T08:42:07.531Z,19.40
2023-06-17T08:47:12.490Z,17.30
2023-06-17T08:52:14.935Z,14.73
2023-06-17T08:57:16.384Z,18.00
2023-06-17T09:02:18.480Z,22.55
2023-06-17T09:07:19.108Z,18.67
2023-06-17T09:12:19.765Z,18.60
2023-06-17T09:17:33.116Z,16.13
2023-06-17T09:22:33.992Z,13.73
2023-06-17T09:27:34.857Z,12.23
2023-06-17T09:32:41.869Z,15.77
2023-06-17T09:37:58.071Z,12.35
2023-06-17T09:43:25.018Z,16.00
2023-06-17T09:48:30.928Z,17.50
2023-06-17T09:53:31.943Z,28.38
2023-06-17T09:58:33.124Z,13.07
2023-06-17T10:03:36.227Z,12.80
2023-06-17T10:08:38.426Z,13.95
2023-06-17T10:13:42.249Z,19.10
2023-06-17T10:18:48.735Z,12.70
2023-06-17T10:23:50.955Z,13.40
2023-06-17T10:29:01.973Z,11.10
2023-06-17T10:34:04.972Z,12.20
2023-06-17T10:39:07.504Z,10.02
2023-06-17T10:44:29.454Z,12.50
2023-06-17T10:49:41.553Z,10.30
2023-06-17T10:54:46.740Z,10.98
2023-06-17T10:59:47.429Z,9.27
2023-06-17T11:04:49.687Z,9.43
2023-06-17T11:09:50.414Z,9.30
2023-06-17T11:14:51.137Z,7.45
2023-06-17T11:19:53.174Z,15.27
2023-06-17T11:24:53.959Z,6.82
2023-06-17T11:29:54.617Z,6.53
2023-06-17T11:34:57.210Z,6.22
2023-06-17T11:39:58.411Z,7.40
2023-06-17T11:44:59.535Z,6.40
2023-06-17T11:50:07.969Z,7.28
2023-06-17T11:55:15.149Z,5.18
2023-06-17T12:00:16.771Z,5.35
2023-06-17T12:05:18.850Z,9.00
2023-06-17T12:10:19.896Z,5.65
2023-06-17T12:15:36.308Z,3.10
2023-06-17T12:20:39.733Z,5.97
2023-06-17T12:25:40.427Z,8.23
2023-06-17T12:30:41.286Z,9.18
2023-06-17T12:35:43.289Z,9.02
2023-06-17T12:40:44.193Z,6.38
2023-06-17T12:45:44.860Z,10.57
2023-06-17T12:50:47.265Z,8.43
2023-06-17T12:55:48.068Z,12.48
2023-06-17T13:00:49.034Z,11.05
2023-06-17T13:05:52.560Z,8.65
2023-06-17T13:10:53.225Z,9.10
2023-06-17T13:15:54.511Z,9.23
2023-06-17T13:20:56.488Z,10.40
2023-06-17T13:25:57.178Z,7.45
2023-06-17T13:31:02.296Z,6.50
2023-06-17T13:36:04.436Z,7.75
2023-06-17T13:41:05.166Z,8.43
2023-06-17T13:46:06.044Z,7.72
2023-06-17T13:51:08.380Z,6.43
2023-06-17T13:56:09.613Z,6.40
2023-06-17T14:01:10.406Z,10.07
2023-06-17T14:06:12.594Z,6.60
2023-06-17T14:11:13.278Z,5.25
2023-06-17T14:16:14.229Z,9.00
2023-06-17T14:21:33.668Z,10.40
2023-06-17T14:26:36.075Z,6.78
2023-06-17T14:31:37.043Z,9.07
2023-06-17T14:36:39.026Z,6.88
2023-06-17T14:41:39.651Z,6.13
2023-06-17T14:46:41.500Z,5.82
2023-06-17T14:51:44.254Z,7.07
2023-06-17T14:56:46.389Z,7.57
2023-06-17T15:01:47.333Z,6.35
2023-06-17T15:06:49.428Z,4.72
2023-06-17T15:11:50.066Z,7.65
2023-06-17T15:16:51.292Z,7.30
2023-06-17T15:21:53.385Z,4.05
2023-06-17T15:26:54.249Z,9.90
2023-06-17T15:31:54.894Z,5.20
2023-06-17T15:36:56.855Z,7.10
2023-06-17T15:41:57.497Z,8.18
2023-06-17T15:47:00.380Z,5.10
2023-06-17T15:52:02.620Z,6.50
2023-06-17T15:57:05.079Z,5.72
2023-06-17T16:02:06.342Z,5.82
2023-06-17T16:07:10.444Z,8.02
2023-06-17T16:12:13.049Z,8.45
2023-06-17T16:17:13.878Z,6.53
2023-06-17T16:22:15.923Z,6.45
2023-06-17T16:27:16.759Z,7.07
2023-06-17T16:32:17.403Z,7.20
2023-06-17T16:37:19.415Z,5.65
2023-06-17T16:42:20.077Z,6.20
2023-06-17T16:47:22.620Z,6.43
2023-06-17T16:52:25.159Z,6.65
2023-06-17T16:57:25.983Z,6.38
2023-06-17T17:02:27.100Z,5.47
2023-06-17T17:07:29.308Z,6.28
2023-06-17T17:12:29.956Z,4.40
2023-06-17T17:17:30.639Z,5.45
2023-06-17T17:22:32.789Z,4.15
2023-06-17T17:27:33.575Z,4.25
2023-06-17T17:32:34.436Z,3.67
2023-06-17T17:37:37.209Z,5.55
2023-06-17T17:42:37.900Z,8.30
2023-06-17T17:47:38.636Z,3.60
2023-06-17T17:52:41.222Z,10.32
2023-06-17T17:57:41.891Z,5.68
2023-06-17T18:02:42.774Z,4.78
2023-06-17T18:07:45.553Z,6.07
2023-06-17T18:12:47.024Z,6.47
2023-06-17T18:17:47.905Z,4.15
2023-06-17T18:22:50.253Z,4.80
2023-06-17T18:27:50.934Z,3.78
2023-06-17T18:32:51.666Z,5.18
2023-06-17T18:37:53.958Z,5.88
2023-06-17T18:42:54.636Z,6.07
2023-06-17T18:47:55.724Z,4.53
2023-06-17T18:52:57.743Z,5.50
2023-06-17T18:57:58.646Z,7.57
2023-06-17T19:02:59.621Z,6.45
2023-06-17T19:08:01.710Z,5.50
2023-06-17T19:13:03.583Z,7.47
2023-06-17T19:18:04.736Z,8.48
2023-06-17T19:23:07.635Z,8.20
2023-06-17T19:28:08.286Z,10.70
2023-06-17T19:33:08.941Z,7.35
2023-06-17T19:38:11.496Z,9.52
2023-06-17T19:43:12.237Z,6.78
2023-06-17T19:48:13.012Z,9.00
2023-06-17T19:53:15.078Z,8.27
2023-06-17T19:58:15.713Z,40.10
2023-06-17T20:03:16.697Z,14.65
2023-06-17T20:08:18.842Z,11.65
2023-06-17T20:13:20.579Z,12.95
2023-06-17T20:18:21.217Z,10.60
2023-06-17T20:23:24.741Z,9.98
2023-06-17T20:28:25.460Z,11.07
2023-06-17T20:33:26.221Z,11.02
2023-06-17T20:38:29.111Z,13.95
2023-06-17T20:43:29.815Z,18.45
2023-06-17T20:48:31.283Z,16.33
2023-06-17T20:53:33.233Z,13.65
2023-06-17T20:58:33.968Z,14.05
2023-06-17T21:03:34.733Z,14.90
2023-06-17T21:08:36.800Z,13.85
2023-06-17T21:13:37.443Z,20.55
2023-06-17T21:18:38.100Z,20.58
2023-06-17T21:23:40.057Z,19.15
2023-06-17T21:28:41.022Z,21.17
2023-06-17T21:33:41.694Z,18.70
2023-06-17T21:38:43.749Z,21.10
2023-06-17T21:43:44.409Z,22.75
2023-06-17T21:48:45.091Z,18.50
2023-06-17T21:53:47.063Z,24.63
2023-06-17T21:58:47.738Z,24.38
2023-06-17T22:03:48.489Z,20.80
2023-06-17T22:08:50.625Z,25.30
2023-06-17T22:13:51.308Z,23.30
2023-06-17T22:18:52.430Z,24.08
2023-06-17T22:23:54.506Z,18.83
2023-06-17T22:28:55.175Z,24.92
2023-06-17T22:33:55.806Z,22.58
2023-06-17T22:38:57.770Z,21.77
2023-06-17T22:43:58.461Z,24.35
2023-06-17T22:48:59.568Z,25.42
2023-06-17T22:54:01.586Z,22.80
2023-06-17T22:59:02.210Z,20.95
2023-06-17T23:04:04.011Z,22.88
2023-06-17T23:09:07.701Z,21.33
2023-06-17T23:14:09.260Z,18.35
2023-06-17T23:19:10.093Z,19.48
2023-06-17T23:24:13.275Z,21.30
2023-06-17T23:29:14.216Z,17.92
2023-06-17T23:34:14.851Z,14.95
2023-06-17T23:39:17.331Z,15.13
2023-06-17T23:44:18.453Z,18.10
2023-06-17T23:49:19.099Z,17.90
2023-06-17T23:54:21.154Z,23.13
2023-06-17T23:59:21.782Z,22.52
